Time;durP1;ratioP1;P1;durP2;ratioP2;P2;SDS_P1;SDS_P2;PMS_P1;PMS_P2;Temp;Humidity;BMP_temperature;BMP_pressure;BME280_temperature;BME280_humidity;BME280_pressure;Samples;Min_cycle;Max_cycle;Signal;HPM_P1;HPM_P2
2021/12/23 00:01:26;;;;;;;28.80;13.30;;;;;;;-7.48;82.02;97419.88;107710;1281;38990;-76
2021/12/23 00:03:54;;;;;;;16.10;8.20;;;;;;;-7.45;81.96;97406.42;107698;1283;39063;-76
2021/12/23 00:06:22;;;;;;;28.40;13.30;;;;;;;-7.37;81.94;97412.15;107913;1282;33880;-76
2021/12/23 00:08:50;;;;;;;22.70;11.30;;;;;;;-7.33;81.98;97403.74;107855;1283;32807;-75
2021/12/23 00:11:19;;;;;;;21.10;11.00;;;;;;;-7.24;81.78;97411.40;107752;1283;52886;-76
2021/12/23 00:13:58;;;;;;;23.60;11.20;;;;;;;-7.17;81.27;97403.61;107741;1282;41394;-76
2021/12/23 00:16:41;;;;;;;21.70;11.10;;;;;;;-7.19;81.20;97409.39;107805;1283;33375;-76
2021/12/23 00:19:20;;;;;;;21.40;8.70;;;;;;;-7.16;80.85;97407.29;107704;1283;39265;-76
2021/12/23 00:24:35;;;;;;;15.40;8.20;;;;;;;-7.13;80.60;97398.02;107800;1282;30799;-76
2021/12/23 00:27:05;;;;;;;15.20;8.00;;;;;;;-7.18;80.51;97398.13;107737;1283;35823;-76
2021/12/23 00:29:34;;;;;;;16.20;8.70;;;;;;;-7.23;80.60;97395.52;107878;1283;33237;-76
2021/12/23 00:32:05;;;;;;;23.20;12.40;;;;;;;-7.25;80.76;97390.95;107768;1283;33421;-76
2021/12/23 00:34:34;;;;;;;17.50;10.00;;;;;;;-7.28;80.82;97388.64;107770;1281;40689;-76
2021/12/23 00:37:06;;;;;;;18.50;8.60;;;;;;;-7.26;80.82;97385.40;107766;1283;34795;-76
2021/12/23 00:39:34;;;;;;;18.60;8.50;;;;;;;-7.23;80.83;97378.40;107763;1283;42154;-76
2021/12/23 00:42:08;;;;;;;21.00;10.60;;;;;;;-7.16;80.88;97380.48;107779;1283;29148;-76
2021/12/23 00:44:40;;;;;;;15.10;7.40;;;;;;;-7.15;80.49;97378.33;107769;1283;35298;-76
2021/12/23 00:47:08;;;;;;;15.50;6.90;;;;;;;-7.13;80.65;97370.80;107888;1279;33091;-76
2021/12/23 00:49:36;;;;;;;22.10;11.00;;;;;;;-7.14;80.47;97374.59;107826;1282;40632;-76
2021/12/23 00:52:08;;;;;;;24.80;12.40;;;;;;;-7.15;80.49;97372.31;107839;1283;45258;-76
2021/12/23 00:54:36;;;;;;;16.40;7.60;;;;;;;-7.13;80.37;97367.70;107930;1282;32141;-76
2021/12/23 00:57:05;;;;;;;14.90;7.70;;;;;;;-7.13;80.31;97364.91;107822;1282;39595;-77
2021/12/23 00:59:35;;;;;;;20.40;10.60;;;;;;;-7.12;80.27;97367.42;107872;1282;32801;-76
2021/12/23 01:02:07;;;;;;;21.30;11.20;;;;;;;-7.11;80.32;97367.79;107834;1282;38209;-76
2021/12/23 01:04:37;;;;;;;24.40;11.90;;;;;;;-7.10;80.47;97366.17;107768;1283;32616;-76
2021/12/23 01:07:06;;;;;;;21.40;11.00;;;;;;;-7.10;80.40;97357.88;107741;1283;41715;-76
2021/12/23 01:09:34;;;;;;;19.30;9.80;;;;;;;-7.06;80.42;97352.03;107875;1282;34801;-77
2021/12/23 01:12:03;;;;;;;17.30;9.90;;;;;;;-7.03;80.24;97353.44;107772;1282;40237;-76
2021/12/23 01:14:41;;;;;;;18.80;10.90;;;;;;;-7.04;80.17;97349.41;107686;1283;61914;-76
2021/12/23 01:17:30;;;;;;;18.50;7.90;;;;;;;-7.04;80.06;97346.84;107868;1282;36287;-76
2021/12/23 01:20:01;;;;;;;23.10;10.30;;;;;;;-7.02;80.10;97346.94;107713;1284;41847;-77
2021/12/23 01:22:29;;;;;;;18.30;9.80;;;;;;;-7.02;79.72;97345.07;107756;1283;33432;-76
2021/12/23 01:24:57;;;;;;;17.40;9.90;;;;;;;-7.01;79.53;97350.20;107750;1282;34818;-76
2021/12/23 01:27:25;;;;;;;15.90;7.90;;;;;;;-7.02;79.63;97344.23;107763;1283;34160;-76
2021/12/23 01:30:01;;;;;;;18.00;9.20;;;;;;;-7.01;79.22;97347.75;107804;1282;28431;-76
2021/12/23 01:32:30;;;;;;;24.90;10.00;;;;;;;-7.02;79.21;97351.95;107730;1281;54373;-76
2021/12/23 01:34:58;;;;;;;17.70;9.10;;;;;;;-7.01;79.10;97353.60;107807;1282;41456;-76
2021/12/23 01:37:26;;;;;;;20.70;10.30;;;;;;;-7.04;78.91;97345.33;107746;1281;36370;-76
2021/12/23 01:39:54;;;;;;;19.10;11.20;;;;;;;-7.06;79.02;97343.91;107791;1281;30330;-76
2021/12/23 01:42:23;;;;;;;24.90;12.10;;;;;;;-7.10;79.13;97340.04;107843;1282;37864;-76
2021/12/23 01:44:51;;;;;;;21.90;9.90;;;;;;;-7.14;79.05;97336.27;107792;1281;37310;-76
2021/12/23 01:47:19;;;;;;;18.00;8.10;;;;;;;-7.17;79.15;97339.86;107945;1282;34109;-76
2021/12/23 01:49:48;;;;;;;16.10;9.00;;;;;;;-7.14;79.10;97335.11;107846;1283;35884;-76
2021/12/23 01:52:16;;;;;;;16.90;8.60;;;;;;;-7.07;79.26;97325.14;107820;1279;43423;-76
2021/12/23 01:54:44;;;;;;;17.00;9.10;;;;;;;-7.03;79.21;97320.29;107782;1282;36891;-76
2021/12/23 01:57:14;;;;;;;13.10;6.90;;;;;;;-7.02;78.96;97325.38;107736;1284;31981;-76
2021/12/23 01:59:42;;;;;;;14.30;8.00;;;;;;;-7.01;79.05;97323.48;107744;1283;36237;-76
2021/12/23 02:02:11;;;;;;;20.10;10.50;;;;;;;-6.98;78.72;97320.70;107792;1283;32831;-76
2021/12/23 02:04:39;;;;;;;25.50;11.50;;;;;;;-6.99;78.74;97315.25;107730;1283;35823;-76
2021/12/23 02:07:07;;;;;;;21.80;10.10;;;;;;;-6.99;78.82;97310.42;107786;1282;33639;-76
2021/12/23 02:09:35;;;;;;;23.00;9.40;;;;;;;-7.01;78.72;97313.25;107748;1284;36882;-76
2021/12/23 02:12:05;;;;;;;23.50;10.70;;;;;;;-7.03;78.64;97309.33;107848;1283;32082;-77
2021/12/23 02:14:34;;;;;;;15.90;7.90;;;;;;;-7.02;78.54;97310.02;107793;1283;31065;-76
2021/12/23 02:17:03;;;;;;;20.30;10.50;;;;;;;-7.00;78.67;97309.84;107933;1283;28606;-76
2021/12/23 02:19:33;;;;;;;23.60;10.90;;;;;;;-7.01;78.67;97298.63;107824;1282;46959;-76
2021/12/23 02:22:02;;;;;;;15.80;8.80;;;;;;;-7.02;78.39;97296.88;107798;1283;32719;-77
2021/12/23 02:24:30;;;;;;;22.00;8.60;;;;;;;-7.02;78.22;97289.47;107780;1283;30748;-76
2021/12/23 02:26:58;;;;;;;17.80;7.60;;;;;;;-7.00;78.26;97285.45;107761;1282;30852;-76
2021/12/23 02:29:26;;;;;;;19.90;11.40;;;;;;;-6.98;78.02;97286.14;107771;1283;41199;-76
2021/12/23 02:31:55;;;;;;;13.50;8.40;;;;;;;-7.00;77.71;97285.64;107798;1283;36425;-76
2021/12/23 02:34:23;;;;;;;18.70;10.20;;;;;;;-7.07;77.86;97276.17;107863;1282;29887;-76
2021/12/23 02:36:53;;;;;;;15.50;6.00;;;;;;;-7.10;78.02;97272.02;107834;1282;32272;-76
2021/12/23 02:39:29;;;;;;;15.60;7.40;;;;;;;-7.12;78.22;97268.75;107755;1284;30596;-76
2021/12/23 02:41:59;;;;;;;15.30;8.30;;;;;;;-7.11;77.96;97263.70;107787;1281;36221;-76
2021/12/23 02:44:27;;;;;;;15.40;8.00;;;;;;;-7.09;77.93;97253.53;107783;1283;33198;-76
2021/12/23 02:46:58;;;;;;;14.50;6.70;;;;;;;-7.11;77.78;97261.96;107706;1282;43690;-76
2021/12/23 02:49:26;;;;;;;16.20;8.40;;;;;;;-7.13;77.89;97256.86;107748;1282;38127;-76
2021/12/23 02:51:55;;;;;;;22.20;10.50;;;;;;;-7.11;77.92;97255.45;107894;1283;28928;-76
2021/12/23 02:54:23;;;;;;;13.30;7.30;;;;;;;-7.06;77.91;97252.41;107813;1282;34159;-76
2021/12/23 02:56:51;;;;;;;22.00;9.00;;;;;;;-7.08;77.67;97252.77;107825;1283;35666;-76
2021/12/23 02:59:19;;;;;;;11.80;6.10;;;;;;;-7.11;77.78;97254.61;107820;1282;31383;-76
2021/12/23 03:01:47;;;;;;;16.70;7.60;;;;;;;-7.13;77.74;97245.59;107754;1282;37927;-76
2021/12/23 03:04:16;;;;;;;16.60;7.50;;;;;;;-7.19;77.56;97243.16;107770;1283;30877;-76
2021/12/23 03:06:44;;;;;;;19.60;11.20;;;;;;;-7.26;77.72;97245.25;107696;1283;45183;-76
2021/12/23 03:09:12;;;;;;;15.90;7.80;;;;;;;-7.34;77.85;97245.90;107715;1281;52874;-76
2021/12/23 03:11:43;;;;;;;17.10;7.90;;;;;;;-7.41;77.71;97242.50;107731;1281;41369;-76
2021/12/23 03:14:13;;;;;;;13.90;7.70;;;;;;;-7.42;78.00;97235.67;107718;1283;46910;-76
2021/12/23 03:16:41;;;;;;;17.30;7.40;;;;;;;-7.40;78.07;97230.54;107789;1282;29338;-76
2021/12/23 03:19:09;;;;;;;18.10;9.50;;;;;;;-7.40;77.81;97229.80;107803;1279;39347;-76
2021/12/23 03:21:38;;;;;;;15.00;8.30;;;;;;;-7.43;77.92;97234.90;107781;1284;34896;-76
2021/12/23 03:24:07;;;;;;;15.40;8.00;;;;;;;-7.47;78.08;97235.45;107774;1283;39052;-76
2021/12/23 03:26:35;;;;;;;11.80;5.30;;;;;;;-7.48;78.10;97232.46;107733;1282;33462;-76
2021/12/23 03:29:04;;;;;;;18.70;10.10;;;;;;;-7.45;78.10;97235.11;107792;1284;33260;-76
2021/12/23 03:31:32;;;;;;;19.80;11.20;;;;;;;-7.43;78.36;97230.62;107772;1284;34944;-76
2021/12/23 03:34:00;;;;;;;16.40;8.50;;;;;;;-7.41;78.16;97229.44;107743;1281;34754;-76
2021/12/23 03:36:28;;;;;;;17.80;10.40;;;;;;;-7.44;78.35;97236.73;107837;1283;38270;-76
2021/12/23 03:38:57;;;;;;;12.00;6.70;;;;;;;-7.43;78.15;97238.89;107818;1284;33338;-76
2021/12/23 03:41:25;;;;;;;19.50;9.80;;;;;;;-7.42;78.21;97233.75;107710;1284;38019;-76
2021/12/23 03:43:53;;;;;;;17.10;7.60;;;;;;;-7.43;78.22;97228.94;107753;1283;31446;-76
2021/12/23 03:46:21;;;;;;;15.20;9.20;;;;;;;-7.44;78.11;97230.80;107811;1284;41043;-76
2021/12/23 03:48:50;;;;;;;19.00;8.50;;;;;;;-7.48;78.26;97231.88;107843;1284;32353;-76
2021/12/23 03:51:19;;;;;;;14.40;8.70;;;;;;;-7.49;78.30;97230.10;107822;1283;39530;-76
2021/12/23 03:53:48;;;;;;;13.50;6.70;;;;;;;-7.50;78.33;97226.44;107749;1283;40321;-76
2021/12/23 03:56:19;;;;;;;13.80;7.20;;;;;;;-7.49;78.20;97219.55;107813;1283;35946;-76
2021/12/23 03:58:47;;;;;;;15.40;6.40;;;;;;;-7.51;78.20;97219.90;107715;1284;40890;-76
2021/12/23 04:01:16;;;;;;;15.10;7.20;;;;;;;-7.52;78.09;97213.00;107741;1282;29580;-76
2021/12/23 04:03:44;;;;;;;7.50;4.50;;;;;;;-7.55;78.10;97203.59;107916;1283;29279;-76
2021/12/23 04:06:13;;;;;;;16.00;8.50;;;;;;;-7.55;78.26;97200.75;107848;1282;36627;-76
2021/12/23 04:08:41;;;;;;;16.70;8.60;;;;;;;-7.57;78.33;97197.30;107741;1284;32038;-76
2021/12/23 04:11:09;;;;;;;16.60;7.30;;;;;;;-7.57;78.12;97190.06;107810;1284;32884;-76
2021/12/23 04:13:38;;;;;;;14.90;8.10;;;;;;;-7.56;78.49;97183.34;107729;1283;39119;-76
2021/12/23 04:16:07;;;;;;;12.60;7.20;;;;;;;-7.53;78.48;97180.98;107735;1283;30855;-76
2021/12/23 04:18:35;;;;;;;14.30;7.40;;;;;;;-7.52;78.35;97168.10;107737;1283;38937;-76
2021/12/23 04:21:04;;;;;;;11.70;6.70;;;;;;;-7.49;78.19;97173.48;107837;1284;32752;-76
2021/12/23 04:23:33;;;;;;;13.60;6.70;;;;;;;-7.48;78.46;97165.52;107755;1283;32708;-76
2021/12/23 04:26:02;;;;;;;15.60;8.10;;;;;;;-7.49;78.14;97171.79;107743;1283;40290;-76
2021/12/23 04:28:30;;;;;;;14.50;7.90;;;;;;;-7.50;78.28;97174.96;107767;1284;34149;-76
2021/12/23 04:30:58;;;;;;;10.50;5.00;;;;;;;-7.48;78.10;97169.84;107942;1283;33979;-76
2021/12/23 04:33:27;;;;;;;12.10;7.30;;;;;;;-7.44;78.23;97161.70;107751;1283;37042;-76
2021/12/23 04:35:55;;;;;;;13.60;7.10;;;;;;;-7.36;78.06;97159.89;107767;1283;41691;-76
2021/12/23 04:38:23;;;;;;;16.10;6.80;;;;;;;-7.28;78.11;97158.23;107708;1283;43092;-76
2021/12/23 04:40:51;;;;;;;16.80;7.50;;;;;;;-7.26;77.64;97158.35;107775;1283;40830;-76
2021/12/23 04:43:19;;;;;;;13.40;6.30;;;;;;;-7.27;77.73;97161.18;107867;1284;29560;-76
2021/12/23 04:45:47;;;;;;;17.00;7.50;;;;;;;-7.29;77.62;97163.95;107779;1284;30921;-75
2021/12/23 04:48:16;;;;;;;14.60;7.80;;;;;;;-7.34;77.41;97166.08;107807;1284;32177;-76
2021/12/23 04:50:44;;;;;;;13.30;7.60;;;;;;;-7.36;77.58;97159.50;107731;1284;43175;-76
2021/12/23 04:53:15;;;;;;;15.70;7.60;;;;;;;-7.39;77.32;97162.91;107714;1283;41271;-76
2021/12/23 04:55:43;;;;;;;20.50;10.10;;;;;;;-7.37;77.50;97152.90;107746;1281;50512;-76
2021/12/23 04:58:12;;;;;;;12.70;5.90;;;;;;;-7.29;77.58;97156.11;107854;1283;30340;-76
2021/12/23 05:00:42;;;;;;;14.90;7.80;;;;;;;-7.31;77.56;97151.45;107761;1283;34225;-76
2021/12/23 05:03:13;;;;;;;9.10;4.40;;;;;;;-7.31;77.33;97141.71;107901;1283;44799;-76
2021/12/23 05:05:41;;;;;;;13.20;6.70;;;;;;;-7.25;77.41;97138.64;107878;1283;32131;-76
2021/12/23 05:08:11;;;;;;;13.10;6.30;;;;;;;-7.23;77.37;97138.65;107888;1283;32061;-76
2021/12/23 05:10:40;;;;;;;13.90;6.60;;;;;;;-7.23;77.45;97136.02;107818;1282;39638;-76
2021/12/23 05:13:10;;;;;;;8.30;4.30;;;;;;;-7.21;77.36;97130.73;107753;1283;34531;-76
2021/12/23 05:15:39;;;;;;;8.60;4.70;;;;;;;-7.17;77.35;97125.88;107806;1283;36639;-76
2021/12/23 05:18:09;;;;;;;10.30;4.80;;;;;;;-7.13;77.33;97117.80;107726;1282;38717;-76
2021/12/23 05:20:37;;;;;;;8.90;4.70;;;;;;;-7.11;77.23;97115.42;107814;1284;30985;-76
2021/12/23 05:23:05;;;;;;;14.20;6.00;;;;;;;-7.08;76.98;97112.27;107777;1283;30839;-76
2021/12/23 05:25:34;;;;;;;10.20;4.70;;;;;;;-7.03;77.17;97111.95;107705;1283;35220;-76
2021/12/23 05:28:02;;;;;;;9.90;3.70;;;;;;;-7.02;76.63;97107.68;107900;1283;37123;-76
2021/12/23 05:30:31;;;;;;;11.40;6.50;;;;;;;-6.93;76.63;97102.80;107891;1283;32818;-76
2021/12/23 05:33:00;;;;;;;10.50;5.40;;;;;;;-6.91;76.34;97103.06;107716;1282;41907;-76
2021/12/23 05:35:28;;;;;;;10.10;4.80;;;;;;;-6.93;76.25;97098.48;107781;1283;34264;-77
2021/12/23 05:37:56;;;;;;;14.20;5.90;;;;;;;-6.97;76.23;97091.65;107721;1284;37039;-77
2021/12/23 05:40:28;;;;;;;7.00;4.40;;;;;;;-7.01;76.16;97093.67;107696;1284;45053;-77
2021/12/23 05:42:58;;;;;;;12.70;6.20;;;;;;;-7.06;76.25;97095.20;107813;1284;30623;-76
2021/12/23 05:45:26;;;;;;;11.30;4.60;;;;;;;-7.07;76.04;97094.08;107826;1282;42561;-76
2021/12/23 05:47:55;;;;;;;12.00;6.10;;;;;;;-7.10;76.17;97091.66;107873;1284;36915;-76
2021/12/23 05:50:24;;;;;;;10.30;6.10;;;;;;;-7.09;76.24;97093.30;107816;1283;40006;-76
2021/12/23 05:52:53;;;;;;;7.10;4.10;;;;;;;-7.05;76.09;97092.18;107761;1283;40398;-76
2021/12/23 05:55:22;;;;;;;11.30;5.70;;;;;;;-7.02;75.97;97087.45;107849;1283;30800;-76
2021/12/23 05:57:51;;;;;;;12.60;6.20;;;;;;;-7.02;75.94;97084.48;107821;1284;40734;-76
2021/12/23 06:00:23;;;;;;;9.20;4.60;;;;;;;-7.04;75.98;97087.41;107946;1281;41049;-76
2021/12/23 06:02:53;;;;;;;9.60;4.60;;;;;;;-7.06;75.70;97080.77;107823;1283;33825;-76
2021/12/23 06:05:22;;;;;;;9.30;5.30;;;;;;;-7.04;75.58;97079.37;107800;1284;38154;-76
2021/12/23 06:07:50;;;;;;;13.50;7.20;;;;;;;-7.08;75.65;97079.75;107841;1283;38271;-76
2021/12/23 06:10:20;;;;;;;9.80;5.50;;;;;;;-7.12;75.64;97080.35;107793;1282;42902;-76
2021/12/23 06:12:49;;;;;;;6.70;4.30;;;;;;;-7.18;75.82;97074.73;107890;1284;37462;-76
2021/12/23 06:15:18;;;;;;;7.30;3.30;;;;;;;-7.20;75.91;97071.14;107807;1284;28447;-76
2021/12/23 06:17:46;;;;;;;16.20;5.50;;;;;;;-7.19;75.92;97069.86;107804;1283;29415;-76
2021/12/23 06:20:15;;;;;;;9.70;5.40;;;;;;;-7.12;75.89;97066.34;107859;1283;39170;-76
2021/12/23 06:22:43;;;;;;;11.50;5.60;;;;;;;-7.10;75.78;97066.94;107753;1283;32588;-76
2021/12/23 06:25:13;;;;;;;11.30;5.40;;;;;;;-7.08;75.66;97070.31;107893;1283;38590;-76
2021/12/23 06:27:42;;;;;;;12.00;6.80;;;;;;;-7.03;75.39;97071.59;107739;1284;37937;-76
2021/12/23 06:30:17;;;;;;;11.40;4.40;;;;;;;-6.98;75.51;97067.08;107723;1283;40130;-76
2021/12/23 06:32:47;;;;;;;8.00;4.70;;;;;;;-6.97;75.42;97059.36;107791;1283;37150;-77
2021/12/23 06:35:15;;;;;;;;;;;;;;;-6.95;75.41;97068.80;107884;1282;30384;-76
2021/12/23 06:37:44;;;;;;;9.50;4.20;;;;;;;-6.95;75.36;97059.70;107808;1284;31651;-76
2021/12/23 06:40:14;;;;;;;8.70;4.10;;;;;;;-6.92;75.13;97064.36;107733;1283;37458;-76
2021/12/23 06:42:43;;;;;;;13.00;6.00;;;;;;;-6.91;75.30;97060.66;107832;1283;36067;-76
2021/12/23 06:45:12;;;;;;;11.50;5.80;;;;;;;-6.89;75.06;97068.23;107759;1284;31023;-76
2021/12/23 06:47:42;;;;;;;7.70;4.50;;;;;;;-6.86;74.96;97066.75;107708;1284;39654;-76
2021/12/23 06:50:12;;;;;;;8.90;4.30;;;;;;;-6.80;74.80;97057.63;107719;1282;39477;-76
2021/12/23 06:52:41;;;;;;;7.80;4.50;;;;;;;-6.72;74.56;97064.23;107731;1284;38513;-76
2021/12/23 06:55:12;;;;;;;8.40;3.80;;;;;;;-6.69;74.64;97068.39;107715;1283;35761;-76
2021/12/23 06:57:41;;;;;;;8.90;4.40;;;;;;;-6.65;74.36;97065.23;107831;1284;33830;-76
2021/12/23 07:00:15;;;;;;;7.90;4.30;;;;;;;-6.58;74.13;97061.21;107743;1283;36396;-76
2021/12/23 07:02:44;;;;;;;7.80;3.60;;;;;;;-6.53;73.63;97053.67;107759;1282;40814;-76
2021/12/23 07:05:14;;;;;;;8.50;4.70;;;;;;;-6.51;73.45;97047.02;107789;1283;34174;-76
2021/12/23 07:07:53;;;;;;;6.00;3.90;;;;;;;-6.47;73.58;97048.59;107738;1284;32999;-76
2021/12/23 07:10:22;;;;;;;9.60;5.60;;;;;;;-6.47;73.43;97045.44;107752;1284;33625;-76
2021/12/23 07:12:51;;;;;;;8.00;4.70;;;;;;;-6.47;73.21;97042.02;107931;1284;39296;-76
2021/12/23 07:15:20;;;;;;;7.00;3.40;;;;;;;-6.44;72.93;97031.89;107831;1284;36022;-76
2021/12/23 07:17:48;;;;;;;7.20;3.80;;;;;;;-6.38;72.91;97026.88;107855;1284;37934;-76
2021/12/23 07:20:20;;;;;;;11.20;3.90;;;;;;;-6.35;72.71;97019.36;107758;1283;39923;-76
2021/12/23 07:22:48;;;;;;;14.80;5.70;;;;;;;-6.31;72.93;97022.29;107737;1284;38943;-76
2021/12/23 07:25:16;;;;;;;9.50;5.50;;;;;;;-6.29;72.47;97018.45;107738;1283;31445;-76
2021/12/23 07:27:46;;;;;;;7.50;4.00;;;;;;;-6.17;72.50;97017.65;107894;1282;33079;-76
2021/12/23 07:30:18;;;;;;;7.70;3.50;;;;;;;-5.90;72.52;97017.53;107761;1284;37930;-76
2021/12/23 07:32:47;;;;;;;11.10;3.60;;;;;;;-5.64;72.12;97015.38;107643;1284;154772;-76
2021/12/23 07:35:16;;;;;;;8.90;3.50;;;;;;;-5.45;71.74;97015.14;107721;1281;32306;-76
2021/12/23 07:37:45;;;;;;;10.40;4.80;;;;;;;-5.21;71.48;97007.00;107745;1284;40255;-76
2021/12/23 07:40:16;;;;;;;7.80;3.40;;;;;;;-4.94;71.01;97007.59;107711;1284;37627;-76
2021/12/23 07:42:55;;;;;;;4.90;2.80;;;;;;;-4.74;70.27;97001.58;107798;1284;30582;-76
2021/12/23 07:45:26;;;;;;;8.20;4.10;;;;;;;-4.52;69.58;97005.94;107796;1283;39728;-76
2021/12/23 07:47:55;;;;;;;8.90;4.30;;;;;;;-4.32;69.42;97004.23;107736;1283;35722;-76
2021/12/23 07:50:23;;;;;;;9.20;4.30;;;;;;;-4.16;68.94;97002.93;107842;1283;30443;-76
2021/12/23 07:52:54;;;;;;;10.00;4.30;;;;;;;-4.13;68.44;97000.38;107876;1284;29306;-76
2021/12/23 07:55:23;;;;;;;14.20;5.70;;;;;;;-4.12;67.62;96994.83;107870;1283;39614;-76
2021/12/23 07:57:52;;;;;;;10.10;5.60;;;;;;;-4.10;67.64;96992.00;107983;1284;44047;-76
2021/12/23 08:00:21;;;;;;;9.00;4.10;;;;;;;-4.10;67.14;96976.79;107936;1282;38550;-75
2021/12/23 08:02:50;;;;;;;12.50;6.30;;;;;;;-4.29;66.44;96970.48;107902;1284;38153;-75
2021/12/23 08:05:18;;;;;;;13.10;5.70;;;;;;;-4.36;66.73;96978.84;107883;1281;30847;-75
2021/12/23 08:07:48;;;;;;;9.50;5.30;;;;;;;-4.31;66.89;96970.98;107827;1283;37000;-75
2021/12/23 08:10:16;;;;;;;11.50;6.00;;;;;;;-4.23;66.58;96978.30;107904;1284;36902;-75
2021/12/23 08:12:45;;;;;;;10.90;5.70;;;;;;;-4.30;66.22;96969.47;107920;1282;32125;-75
2021/12/23 08:15:13;;;;;;;10.50;5.80;;;;;;;-4.37;66.36;96969.27;107871;1283;39582;-76
2021/12/23 08:17:43;;;;;;;13.90;5.80;;;;;;;-4.48;66.27;96973.45;107895;1283;30473;-76
2021/12/23 08:20:13;;;;;;;10.80;5.70;;;;;;;-4.60;66.28;96960.70;107872;1282;34971;-76
2021/12/23 08:22:42;;;;;;;7.40;4.60;;;;;;;-4.79;66.69;96968.02;107854;1284;41232;-76
2021/12/23 08:25:14;;;;;;;11.60;6.90;;;;;;;-4.86;66.86;96966.33;107706;1284;43746;-76
2021/12/23 08:27:43;;;;;;;12.40;6.20;;;;;;;-4.88;67.11;96964.82;107787;1283;31151;-76
2021/12/23 08:30:14;;;;;;;15.80;7.80;;;;;;;-4.91;67.09;96952.27;107739;1284;38616;-76
2021/12/23 08:32:43;;;;;;;13.50;6.50;;;;;;;-4.91;67.03;96943.36;107798;1284;41062;-76
2021/12/23 08:35:12;;;;;;;12.30;6.40;;;;;;;-4.96;67.02;96932.69;107785;1284;30774;-76
2021/12/23 08:37:45;;;;;;;12.30;6.80;;;;;;;-5.04;66.79;96947.43;107741;1284;30324;-76
2021/12/23 08:40:15;;;;;;;12.40;5.80;;;;;;;-5.05;66.95;96933.23;107812;1284;26742;-76
2021/12/23 08:42:43;;;;;;;7.80;4.70;;;;;;;-4.97;67.16;96935.61;107799;1284;30359;-76
2021/12/23 08:45:12;;;;;;;13.00;6.30;;;;;;;-4.98;67.33;96931.73;107732;1284;46040;-76
2021/12/23 08:47:42;;;;;;;10.30;4.90;;;;;;;-4.99;67.35;96932.33;107759;1283;35005;-76
2021/12/23 08:50:15;;;;;;;13.20;7.30;;;;;;;-4.95;67.53;96934.58;107721;1284;33520;-76
2021/12/23 08:52:43;;;;;;;12.20;7.20;;;;;;;-4.85;67.96;96940.95;107869;1283;39635;-77
2021/12/23 08:55:12;;;;;;;12.90;7.60;;;;;;;-4.73;68.12;96939.09;107852;1284;45926;-77
2021/12/23 08:57:40;;;;;;;13.00;7.00;;;;;;;-4.63;67.79;96936.23;107879;1283;33239;-77
2021/12/23 09:00:15;;;;;;;11.20;6.20;;;;;;;-4.68;67.60;96932.31;107902;1282;34608;-77
2021/12/23 09:02:46;;;;;;;15.30;8.60;;;;;;;-4.64;67.61;96933.42;107795;1284;28591;-77
2021/12/23 09:05:14;;;;;;;18.10;7.50;;;;;;;-4.67;67.47;96924.18;107883;1283;41401;-77
2021/12/23 09:07:44;;;;;;;12.00;7.10;;;;;;;-4.77;67.21;96927.77;107732;1284;34179;-77
2021/12/23 09:10:13;;;;;;;14.30;7.90;;;;;;;-4.68;67.63;96920.77;107846;1284;32546;-77
2021/12/23 09:12:42;;;;;;;14.70;6.30;;;;;;;-4.66;67.38;96922.95;107734;1283;41677;-77
2021/12/23 09:15:12;;;;;;;16.00;7.90;;;;;;;-4.74;67.24;96919.17;107720;1284;36985;-77
2021/12/23 09:17:41;;;;;;;17.20;7.60;;;;;;;-4.79;67.48;96913.72;107831;1283;40731;-77
2021/12/23 09:20:13;;;;;;;15.60;8.30;;;;;;;-4.66;67.85;96908.98;107791;1282;29950;-77
2021/12/23 09:22:42;;;;;;;11.70;7.00;;;;;;;-4.61;67.60;96912.63;107856;1279;38426;-77
2021/12/23 09:25:18;;;;;;;15.20;7.60;;;;;;;-4.73;67.19;96907.85;107911;1284;32513;-77
2021/12/23 09:27:58;;;;;;;10.60;5.40;;;;;;;-4.84;67.43;96900.31;107854;1278;39927;-77
2021/12/23 09:33:13;;;;;;;16.10;8.30;;;;;;;-4.78;67.76;96893.89;107857;1283;32122;-77
2021/12/23 09:35:42;;;;;;;14.20;8.30;;;;;;;-4.85;67.84;96896.41;107743;1284;30917;-77
2021/12/23 09:38:11;;;;;;;17.00;7.90;;;;;;;-4.84;68.10;96892.71;107774;1283;32808;-77
2021/12/23 09:40:40;;;;;;;19.00;7.20;;;;;;;-4.82;67.86;96877.30;107791;1284;34809;-77
2021/12/23 09:43:12;;;;;;;21.80;9.90;;;;;;;-4.87;68.07;96878.67;107731;1284;37640;-77
2021/12/23 09:45:42;;;;;;;13.00;5.70;;;;;;;-4.83;68.18;96871.69;107755;1283;39866;-77
2021/12/23 09:48:11;;;;;;;14.60;9.60;;;;;;;-4.83;68.41;96864.45;107665;1284;43098;-77
2021/12/23 09:50:42;;;;;;;12.00;6.30;;;;;;;-4.83;68.43;96850.64;107777;1283;37049;-77
2021/12/23 09:53:11;;;;;;;13.60;6.50;;;;;;;-4.79;68.57;96843.02;107852;1284;41192;-77
2021/12/23 09:55:39;;;;;;;15.90;6.60;;;;;;;-4.76;68.51;96846.10;107688;1283;41590;-77
2021/12/23 09:58:10;;;;;;;18.60;8.60;;;;;;;-4.69;68.75;96839.08;107739;1283;28976;-77
2021/12/23 10:00:45;;;;;;;13.10;7.20;;;;;;;-4.66;68.76;96823.55;107779;1283;31395;-76
2021/12/23 10:03:15;;;;;;;18.00;9.10;;;;;;;-4.64;68.64;96829.09;107888;1284;42502;-77
2021/12/23 10:05:44;;;;;;;14.70;8.20;;;;;;;-4.62;68.66;96835.77;107814;1283;37071;-76
2021/12/23 10:08:14;;;;;;;13.70;7.60;;;;;;;-4.55;68.81;96841.23;107729;1284;38176;-77
2021/12/23 10:10:47;;;;;;;13.90;6.10;;;;;;;-4.49;68.82;96851.80;107743;1284;32738;-76
2021/12/23 10:30:27;;;;;;;17.50;8.70;;;;;;;-4.04;68.58;96823.00;107763;1284;27186;-76
2021/12/23 10:38:39;;;;;;;14.70;7.80;;;;;;;-4.03;68.46;96807.75;107777;1283;32362;-77
2021/12/23 10:41:12;;;;;;;13.10;7.30;;;;;;;-4.12;68.43;96799.70;107695;1284;37217;-77
2021/12/23 10:43:42;;;;;;;13.40;7.70;;;;;;;-4.22;68.75;96783.43;107695;1282;49427;-75
2021/12/23 10:46:10;;;;;;;;;;;;;;;-4.36;68.76;96769.33;107746;1284;36907;-76
2021/12/23 10:48:48;;;;;;;10.90;7.20;;;;;;;-4.41;69.51;96759.77;107788;1283;38604;-76
2021/12/23 10:51:19;;;;;;;12.40;7.50;;;;;;;-4.37;69.57;96749.60;107765;1282;37385;-77
2021/12/23 10:53:57;;;;;;;12.10;6.70;;;;;;;-4.27;69.76;96745.02;107734;1284;44344;-77
2021/12/23 10:59:17;;;;;;;12.90;7.60;;;;;;;-4.09;69.73;96727.52;107820;1284;38279;-76
2021/12/23 11:02:13;;;;;;;14.30;8.10;;;;;;;-4.05;69.62;96724.32;107715;1283;35862;-76
2021/12/23 11:05:06;;;;;;;15.10;6.90;;;;;;;-4.02;69.71;96711.48;107799;1284;35899;-76
2021/12/23 11:07:50;;;;;;;15.40;7.70;;;;;;;-3.98;69.79;96704.34;107783;1284;54766;-77
2021/12/23 11:10:39;;;;;;;16.40;8.30;;;;;;;-3.88;69.85;96703.70;107754;1283;34248;-77
2021/12/23 11:27:52;;;;;;;16.40;7.00;;;;;;;-3.95;69.51;96666.96;107677;1283;32149;-76
2021/12/23 11:39:25;;;;;;;14.20;8.50;;;;;;;-4.11;69.85;96641.80;107665;1284;53246;-75
2021/12/23 11:42:02;;;;;;;14.70;7.80;;;;;;;-4.11;70.14;96629.42;107881;1282;31228;-75
2021/12/23 11:44:33;;;;;;;14.50;8.60;;;;;;;-4.08;70.19;96609.38;107851;1283;27746;-75
2021/12/23 11:47:09;;;;;;;16.40;8.40;;;;;;;-4.07;70.20;96605.26;107731;1284;44619;-75
2021/12/23 11:49:39;;;;;;;14.50;7.80;;;;;;;-4.02;70.43;96600.19;107814;1284;26677;-75
2021/12/23 11:52:09;;;;;;;17.90;9.10;;;;;;;-4.01;70.28;96593.83;107757;1282;31588;-75
2021/12/23 11:54:40;;;;;;;13.90;7.90;;;;;;;-3.99;70.41;96583.23;107762;1283;38709;-75
2021/12/23 11:57:13;;;;;;;13.20;8.80;;;;;;;-3.98;70.39;96572.58;107733;1284;34489;-75
2021/12/23 11:59:45;;;;;;;13.70;7.70;;;;;;;-3.97;70.56;96571.42;107732;1284;38937;-75
2021/12/23 12:02:16;;;;;;;16.40;8.30;;;;;;;-3.94;70.63;96564.33;107769;1283;34479;-75
2021/12/23 12:04:46;;;;;;;16.40;7.40;;;;;;;-3.92;70.74;96558.14;107721;1281;32824;-75
2021/12/23 12:07:17;;;;;;;18.30;9.90;;;;;;;-3.88;70.72;96556.33;107779;1284;30638;-75
2021/12/23 12:10:00;;;;;;;16.60;8.10;;;;;;;-3.86;70.83;96551.23;107736;1283;32356;-75
2021/12/23 12:12:31;;;;;;;13.30;7.80;;;;;;;-3.82;70.97;96542.96;107730;1284;36329;-75
2021/12/23 12:15:01;;;;;;;17.00;9.60;;;;;;;-3.79;70.81;96545.35;107709;1284;41021;-75
2021/12/23 12:17:43;;;;;;;12.90;7.30;;;;;;;-3.76;70.91;96535.84;107782;1284;39276;-75
2021/12/23 12:20:21;;;;;;;19.00;8.50;;;;;;;-3.72;71.05;96539.13;107696;1283;44069;-75
2021/12/23 12:23:10;;;;;;;15.90;7.60;;;;;;;-3.66;70.87;96543.13;107785;1284;31856;-75
2021/12/23 12:26:04;;;;;;;17.00;10.20;;;;;;;-3.57;71.03;96543.09;107789;1284;41405;-75